Time;durP1;ratioP1;P1;durP2;ratioP2;P2;SDS_P1;SDS_P2;PMS_P1;PMS_P2;Temp;Humidity;BMP_temperature;BMP_pressure;BME280_temperature;BME280_humidity;BME280_pressure;Samples;Min_cycle;Max_cycle;Signal;HPM_P1;HPM_P2
2024/03/23 00:01:54;;;;;;;20.75;4.53;;;;;;;;;;5045008;27;20053;-64
2024/03/23 00:04:20;;;;;;;10.40;2.80;;;;;;;;;;5048686;28;20056;-64
2024/03/23 00:06:48;;;;;;;8.60;2.78;;;;;;;;;;5035750;28;20040;-64
2024/03/23 00:09:15;;;;;;;16.63;3.33;;;;;;;;;;5047300;28;20118;-65
2024/03/23 00:11:44;;;;;;;12.50;3.00;;;;;;;;;;5048619;28;20044;-64
2024/03/23 00:14:11;;;;;;;16.75;3.97;;;;;;;;;;5035277;28;20053;-64
2024/03/23 00:16:40;;;;;;;12.93;3.67;;;;;;;;;;5029794;28;20134;-64
2024/03/23 00:19:07;;;;;;;11.20;3.13;;;;;;;;;;5038880;28;20148;-64
2024/03/23 00:21:38;;;;;;;17.20;3.45;;;;;;;;;;5030826;28;20069;-64
2024/03/23 00:24:05;;;;;;;19.27;3.65;;;;;;;;;;5025540;28;20103;-64
2024/03/23 00:26:33;;;;;;;11.00;3.13;;;;;;;;;;5031716;28;20045;-63
2024/03/23 00:29:00;;;;;;;13.20;3.30;;;;;;;;;;5035751;28;20114;-64
2024/03/23 00:31:27;;;;;;;15.43;3.75;;;;;;;;;;5028232;28;20164;-64
2024/03/23 00:33:57;;;;;;;11.10;3.00;;;;;;;;;;5033114;28;20064;-64
2024/03/23 00:36:26;;;;;;;14.07;3.70;;;;;;;;;;5025330;28;20072;-64
2024/03/23 00:38:53;;;;;;;13.02;3.90;;;;;;;;;;5041928;28;20075;-64
2024/03/23 00:41:20;;;;;;;14.25;4.03;;;;;;;;;;5032594;28;20072;-64
2024/03/23 00:43:47;;;;;;;17.17;3.90;;;;;;;;;;5028277;28;20106;-64
2024/03/23 00:46:15;;;;;;;16.67;4.03;;;;;;;;;;5034967;28;20079;-63
2024/03/23 00:48:42;;;;;;;13.68;3.65;;;;;;;;;;5036090;28;20391;-63
2024/03/23 00:51:09;;;;;;;11.73;3.78;;;;;;;;;;5028506;28;20053;-63
2024/03/23 00:53:36;;;;;;;15.00;3.85;;;;;;;;;;5024671;28;20077;-63
2024/03/23 00:56:03;;;;;;;13.10;3.72;;;;;;;;;;5005543;28;20061;-63
2024/03/23 00:58:38;;;;;;;10.63;3.72;;;;;;;;;;5049342;28;20053;-63
2024/03/23 01:01:06;;;;;;;12.27;4.28;;;;;;;;;;5049490;28;20056;-63
2024/03/23 01:03:34;;;;;;;16.92;4.43;;;;;;;;;;5040406;28;20057;-63
2024/03/23 01:06:01;;;;;;;18.73;4.50;;;;;;;;;;5024390;28;20071;-63
2024/03/23 01:08:27;;;;;;;17.92;3.88;;;;;;;;;;5038945;28;20076;-64
2024/03/23 01:11:28;;;;;;;17.85;4.10;;;;;;;;;;5041692;28;20483;-65
2024/03/23 01:14:09;;;;;;;19.70;3.80;;;;;;;;;;5040897;28;20094;-67
2024/03/23 01:16:36;;;;;;;16.23;4.25;;;;;;;;;;5027086;28;20276;-64
2024/03/23 01:19:02;;;;;;;22.08;5.15;;;;;;;;;;5034941;28;20076;-65
2024/03/23 01:21:30;;;;;;;17.08;4.22;;;;;;;;;;5034967;28;20080;-64
2024/03/23 01:23:58;;;;;;;15.82;4.47;;;;;;;;;;5031791;28;20425;-65
2024/03/23 01:26:27;;;;;;;14.90;4.50;;;;;;;;;;5026844;28;20056;-65
2024/03/23 01:28:52;;;;;;;13.02;4.13;;;;;;;;;;5033163;28;20107;-65
2024/03/23 01:31:19;;;;;;;17.77;4.50;;;;;;;;;;5040082;28;20049;-65
2024/03/23 01:33:45;;;;;;;18.77;4.38;;;;;;;;;;5033898;28;20052;-65
2024/03/23 01:36:11;;;;;;;14.75;4.65;;;;;;;;;;5029670;28;20053;-64
2024/03/23 01:38:37;;;;;;;13.90;4.35;;;;;;;;;;5054676;28;20144;-64
2024/03/23 01:41:04;;;;;;;15.50;4.35;;;;;;;;;;5038118;28;20144;-66
2024/03/23 01:43:31;;;;;;;17.88;4.93;;;;;;;;;;5037479;28;20330;-65
2024/03/23 01:45:57;;;;;;;21.38;4.88;;;;;;;;;;5028358;28;20132;-65
2024/03/23 01:48:24;;;;;;;15.88;4.82;;;;;;;;;;5041204;28;20056;-65
2024/03/23 01:50:51;;;;;;;15.07;4.43;;;;;;;;;;5040413;28;20052;-65
2024/03/23 01:53:17;;;;;;;20.65;5.45;;;;;;;;;;5038869;28;20080;-65
2024/03/23 01:55:44;;;;;;;18.58;5.50;;;;;;;;;;5033277;28;20079;-66
2024/03/23 01:58:10;;;;;;;17.55;4.97;;;;;;;;;;5030719;28;20064;-65
2024/03/23 02:00:38;;;;;;;19.13;5.25;;;;;;;;;;5040350;28;20056;-65
2024/03/23 02:03:22;;;;;;;19.38;6.03;;;;;;;;;;5036470;28;20068;-65
2024/03/23 02:05:48;;;;;;;18.98;5.30;;;;;;;;;;5020057;28;20096;-64
2024/03/23 02:08:14;;;;;;;17.90;5.15;;;;;;;;;;5033494;28;20052;-64
2024/03/23 02:10:41;;;;;;;20.90;5.78;;;;;;;;;;5038176;28;20102;-64
2024/03/23 02:13:06;;;;;;;20.95;5.68;;;;;;;;;;5042138;28;20106;-64
2024/03/23 02:15:33;;;;;;;16.80;5.15;;;;;;;;;;5039186;28;20061;-66
2024/03/23 02:18:00;;;;;;;19.27;5.60;;;;;;;;;;5030938;28;20053;-64
2024/03/23 02:20:27;;;;;;;21.38;5.95;;;;;;;;;;5039348;28;20081;-65
2024/03/23 02:22:54;;;;;;;14.63;5.07;;;;;;;;;;5041015;28;20166;-64
2024/03/23 02:25:21;;;;;;;13.80;4.72;;;;;;;;;;5037944;28;20057;-64
2024/03/23 02:27:46;;;;;;;25.42;5.95;;;;;;;;;;5028055;28;20061;-65
2024/03/23 02:30:13;;;;;;;15.32;5.07;;;;;;;;;;5040979;28;20060;-64
2024/03/23 02:32:39;;;;;;;23.38;5.80;;;;;;;;;;5039849;28;20056;-63
2024/03/23 02:35:08;;;;;;;18.17;5.80;;;;;;;;;;5036950;28;20053;-64
2024/03/23 02:37:34;;;;;;;19.55;5.80;;;;;;;;;;5023833;28;20116;-64
2024/03/23 02:40:02;;;;;;;16.17;4.88;;;;;;;;;;5033627;28;20140;-64
2024/03/23 02:42:28;;;;;;;20.92;5.40;;;;;;;;;;5040110;28;20071;-64
2024/03/23 02:44:55;;;;;;;21.85;5.57;;;;;;;;;;5039104;28;22335;-65
2024/03/23 02:47:20;;;;;;;20.17;5.82;;;;;;;;;;5013438;28;20049;-64
2024/03/23 02:49:47;;;;;;;14.73;5.10;;;;;;;;;;5024810;28;20098;-64
2024/03/23 02:52:13;;;;;;;15.27;5.68;;;;;;;;;;5037673;28;20049;-64
2024/03/23 02:54:42;;;;;;;21.50;5.22;;;;;;;;;;5039221;28;20126;-65
2024/03/23 02:57:09;;;;;;;18.05;5.18;;;;;;;;;;5036349;28;20140;-64
2024/03/23 02:59:36;;;;;;;22.45;5.10;;;;;;;;;;5037951;28;20116;-64
2024/03/23 03:02:01;;;;;;;12.90;4.60;;;;;;;;;;5034051;28;20059;-64
2024/03/23 03:04:28;;;;;;;17.58;4.97;;;;;;;;;;4998654;28;20064;-64
2024/03/23 03:06:53;;;;;;;14.98;4.47;;;;;;;;;;5041060;28;20141;-64
2024/03/23 03:09:21;;;;;;;17.23;5.15;;;;;;;;;;5038353;28;20140;-64
2024/03/23 03:11:47;;;;;;;14.70;5.22;;;;;;;;;;5027422;28;20103;-64
2024/03/23 03:14:17;;;;;;;13.63;4.35;;;;;;;;;;5033564;28;20192;-64
2024/03/23 03:16:42;;;;;;;16.80;4.57;;;;;;;;;;5035202;28;20049;-64
2024/03/23 03:19:10;;;;;;;11.88;4.13;;;;;;;;;;5039998;28;20064;-65
2024/03/23 03:21:36;;;;;;;16.45;5.25;;;;;;;;;;5038379;28;20489;-64
2024/03/23 03:24:07;;;;;;;15.23;4.70;;;;;;;;;;5027435;28;20180;-66
2024/03/23 03:26:32;;;;;;;11.45;3.75;;;;;;;;;;5021055;28;20139;-64
2024/03/23 03:28:59;;;;;;;13.70;4.18;;;;;;;;;;5032003;28;20064;-64
2024/03/23 03:31:26;;;;;;;18.02;4.53;;;;;;;;;;5039515;28;20053;-63
2024/03/23 03:33:53;;;;;;;16.95;4.22;;;;;;;;;;5035685;28;20061;-64
2024/03/23 03:36:19;;;;;;;16.33;4.38;;;;;;;;;;5038375;28;20045;-64
2024/03/23 03:38:45;;;;;;;19.73;4.15;;;;;;;;;;5040081;28;20142;-64
2024/03/23 03:41:11;;;;;;;10.65;3.83;;;;;;;;;;5037967;28;20064;-64
2024/03/23 03:43:38;;;;;;;18.58;3.90;;;;;;;;;;5025362;28;20057;-64
2024/03/23 03:46:04;;;;;;;16.88;4.07;;;;;;;;;;5030910;28;20904;-64
2024/03/23 03:48:32;;;;;;;15.57;4.40;;;;;;;;;;5054739;28;20053;-64
2024/03/23 03:50:57;;;;;;;15.02;4.05;;;;;;;;;;5035494;28;20152;-64
2024/03/23 03:53:24;;;;;;;10.02;3.80;;;;;;;;;;5026279;28;20144;-64
2024/03/23 03:55:49;;;;;;;11.07;3.28;;;;;;;;;;5034934;28;20071;-64
2024/03/23 03:58:16;;;;;;;11.70;3.30;;;;;;;;;;5044808;28;20053;-64
2024/03/23 04:00:42;;;;;;;10.65;3.42;;;;;;;;;;5045287;28;20049;-64
2024/03/23 04:03:08;;;;;;;11.73;3.25;;;;;;;;;;5034177;28;20072;-64
2024/03/23 04:05:39;;;;;;;12.18;3.15;;;;;;;;;;5025335;28;20056;-64
2024/03/23 04:08:06;;;;;;;12.75;3.35;;;;;;;;;;5036056;28;20702;-64
2024/03/23 04:10:32;;;;;;;16.10;3.72;;;;;;;;;;5053742;28;20143;-64
2024/03/23 04:13:00;;;;;;;9.00;3.03;;;;;;;;;;5042526;28;20044;-64
2024/03/23 04:15:25;;;;;;;9.82;2.88;;;;;;;;;;5027603;28;20065;-64
2024/03/23 04:17:52;;;;;;;8.98;2.78;;;;;;;;;;5036388;28;20057;-65
2024/03/23 04:20:18;;;;;;;12.25;2.53;;;;;;;;;;5039442;28;20119;-64
2024/03/23 04:22:46;;;;;;;15.50;2.72;;;;;;;;;;5040066;28;20045;-64
2024/03/23 04:25:12;;;;;;;12.00;2.22;;;;;;;;;;5034101;28;20082;-64
2024/03/23 04:27:39;;;;;;;12.77;2.30;;;;;;;;;;5040652;28;20045;-64
2024/03/23 04:30:11;;;;;;;8.73;2.40;;;;;;;;;;5027703;28;20072;-64
2024/03/23 04:32:38;;;;;;;6.60;2.03;;;;;;;;;;5040437;28;20045;-64
2024/03/23 04:35:06;;;;;;;8.18;2.13;;;;;;;;;;5031623;28;20049;-65
2024/03/23 04:37:33;;;;;;;8.32;2.08;;;;;;;;;;5025559;28;20049;-64
2024/03/23 04:40:03;;;;;;;12.48;1.92;;;;;;;;;;5032061;28;20156;-64
2024/03/23 04:42:30;;;;;;;8.48;2.28;;;;;;;;;;5039043;28;20076;-64
2024/03/23 04:44:59;;;;;;;11.30;2.33;;;;;;;;;;5039612;28;20048;-64
2024/03/23 04:47:25;;;;;;;13.48;2.10;;;;;;;;;;5039292;28;20063;-64
2024/03/23 04:49:52;;;;;;;11.52;2.50;;;;;;;;;;5027364;28;20140;-64
2024/03/23 04:52:19;;;;;;;9.35;2.10;;;;;;;;;;5043353;28;20106;-64
2024/03/23 04:54:46;;;;;;;8.70;2.10;;;;;;;;;;5027090;28;20148;-64
2024/03/23 04:57:14;;;;;;;11.05;1.90;;;;;;;;;;5041311;28;20052;-64
2024/03/23 04:59:40;;;;;;;4.90;1.48;;;;;;;;;;5037548;28;20060;-64
2024/03/23 05:02:06;;;;;;;8.05;1.70;;;;;;;;;;5036424;28;20053;-64
2024/03/23 05:04:32;;;;;;;7.65;1.58;;;;;;;;;;5027463;28;20072;-64
2024/03/23 05:06:59;;;;;;;8.48;2.15;;;;;;;;;;5052936;28;20052;-64
2024/03/23 05:09:29;;;;;;;11.52;2.45;;;;;;;;;;5034917;28;20251;-64
2024/03/23 05:11:56;;;;;;;7.22;1.80;;;;;;;;;;5031495;28;20085;-64
2024/03/23 05:14:23;;;;;;;9.23;1.83;;;;;;;;;;5034204;28;20056;-64
2024/03/23 05:16:50;;;;;;;8.23;2.00;;;;;;;;;;5040200;28;20095;-63
2024/03/23 05:19:16;;;;;;;11.10;2.22;;;;;;;;;;5040622;28;20076;-64
2024/03/23 05:21:42;;;;;;;6.68;1.83;;;;;;;;;;5030302;28;20064;-64
2024/03/23 05:24:09;;;;;;;8.05;1.70;;;;;;;;;;5024956;28;20132;-64
2024/03/23 05:26:35;;;;;;;8.77;1.80;;;;;;;;;;5023941;28;20088;-64
2024/03/23 05:29:02;;;;;;;9.77;2.22;;;;;;;;;;5039319;28;20122;-64
2024/03/23 05:31:30;;;;;;;9.65;2.05;;;;;;;;;;5040607;28;20115;-64
2024/03/23 05:33:57;;;;;;;10.80;2.10;;;;;;;;;;5021912;28;20056;-64
2024/03/23 05:36:24;;;;;;;12.73;2.50;;;;;;;;;;5028094;28;20051;-64
2024/03/23 05:38:50;;;;;;;9.48;1.42;;;;;;;;;;5046900;28;20049;-64
2024/03/23 05:41:18;;;;;;;9.18;1.70;;;;;;;;;;5036054;28;20061;-64
2024/03/23 05:43:45;;;;;;;6.97;1.92;;;;;;;;;;5030824;28;20052;-64
2024/03/23 05:46:11;;;;;;;7.13;1.63;;;;;;;;;;5034380;28;20053;-64
2024/03/23 05:48:39;;;;;;;8.68;1.55;;;;;;;;;;5036547;28;20064;-64
2024/03/23 05:51:05;;;;;;;6.63;1.52;;;;;;;;;;5039876;28;20054;-64
2024/03/23 05:53:32;;;;;;;7.63;1.48;;;;;;;;;;5005776;28;20060;-64
2024/03/23 05:56:03;;;;;;;7.32;1.48;;;;;;;;;;5022681;28;20053;-64
2024/03/23 05:58:31;;;;;;;11.82;1.90;;;;;;;;;;5031009;28;20049;-64
2024/03/23 06:01:01;;;;;;;5.72;1.38;;;;;;;;;;5038760;28;20457;-64
2024/03/23 06:03:27;;;;;;;7.28;2.50;;;;;;;;;;5045660;28;20063;-65
2024/03/23 06:05:55;;;;;;;8.52;2.17;;;;;;;;;;5028798;28;20052;-64
2024/03/23 06:08:22;;;;;;;10.57;2.50;;;;;;;;;;5034009;28;20155;-64
2024/03/23 06:10:48;;;;;;;4.97;1.20;;;;;;;;;;5034169;28;20111;-64
2024/03/23 06:13:15;;;;;;;6.95;1.58;;;;;;;;;;5033207;28;20057;-64
2024/03/23 06:15:40;;;;;;;7.22;1.63;;;;;;;;;;5016437;28;20072;-64
2024/03/23 06:18:08;;;;;;;6.57;1.30;;;;;;;;;;5023488;28;20122;-64
2024/03/23 06:20:34;;;;;;;7.38;1.35;;;;;;;;;;5036074;28;20053;-64
2024/03/23 06:23:03;;;;;;;3.70;1.20;;;;;;;;;;5039294;28;20056;-64
2024/03/23 06:25:29;;;;;;;8.23;1.40;;;;;;;;;;5018520;28;20139;-64
2024/03/23 06:27:55;;;;;;;5.72;1.20;;;;;;;;;;5034537;28;20156;-64
2024/03/23 06:30:23;;;;;;;10.57;1.13;;;;;;;;;;5029681;28;20149;-64
2024/03/23 06:32:50;;;;;;;9.35;1.83;;;;;;;;;;5036256;28;20048;-64
2024/03/23 06:35:16;;;;;;;4.30;1.17;;;;;;;;;;5025423;28;20063;-64
2024/03/23 06:37:43;;;;;;;4.95;1.27;;;;;;;;;;5017709;28;20064;-64
2024/03/23 06:40:12;;;;;;;6.47;1.20;;;;;;;;;;5027383;28;20068;-64
2024/03/23 06:42:39;;;;;;;9.07;1.40;;;;;;;;;;5039707;28;20061;-64
2024/03/23 06:45:05;;;;;;;6.53;1.58;;;;;;;;;;5007779;28;20052;-64
2024/03/23 06:47:32;;;;;;;6.30;1.15;;;;;;;;;;5035736;28;20160;-64
2024/03/23 06:50:01;;;;;;;7.72;1.90;;;;;;;;;;5046859;28;20045;-64
2024/03/23 06:52:28;;;;;;;7.03;1.25;;;;;;;;;;5036515;28;20149;-64
2024/03/23 06:54:56;;;;;;;10.10;1.70;;;;;;;;;;5010554;28;20083;-64
2024/03/23 06:57:25;;;;;;;9.30;1.42;;;;;;;;;;5041175;28;20060;-64
2024/03/23 06:59:50;;;;;;;5.15;1.42;;;;;;;;;;5036438;28;20056;-64
2024/03/23 07:02:17;;;;;;;13.05;1.98;;;;;;;;;;5036310;28;20053;-64
2024/03/23 07:04:45;;;;;;;11.10;1.63;;;;;;;;;;5019187;28;20061;-64
2024/03/23 07:07:12;;;;;;;8.40;1.77;;;;;;;;;;5039430;28;20140;-63
2024/03/23 07:09:38;;;;;;;6.68;2.20;;;;;;;;;;5031027;28;20049;-64
2024/03/23 07:12:06;;;;;;;8.25;1.63;;;;;;;;;;5028868;28;20060;-64
2024/03/23 07:14:32;;;;;;;12.18;1.58;;;;;;;;;;5024122;28;20124;-63
2024/03/23 07:16:59;;;;;;;11.90;1.42;;;;;;;;;;5025985;28;20057;-64
2024/03/23 07:19:25;;;;;;;5.80;1.27;;;;;;;;;;5029262;28;20085;-64
2024/03/23 07:21:52;;;;;;;4.85;1.85;;;;;;;;;;5029465;28;20064;-64
2024/03/23 07:24:19;;;;;;;12.18;1.90;;;;;;;;;;5026359;28;20060;-64
2024/03/23 07:26:47;;;;;;;12.07;2.47;;;;;;;;;;5041751;28;20053;-63
2024/03/23 07:29:12;;;;;;;9.15;2.22;;;;;;;;;;5038810;28;20076;-64
2024/03/23 07:31:42;;;;;;;5.45;1.73;;;;;;;;;;5041227;28;20135;-64
2024/03/23 07:34:08;;;;;;;18.17;3.65;;;;;;;;;;5030063;28;20057;-64
2024/03/23 07:36:36;;;;;;;16.83;3.92;;;;;;;;;;5035242;28;20067;-63
2024/03/23 07:39:03;;;;;;;10.75;2.13;;;;;;;;;;5040015;28;20053;-63
2024/03/23 07:41:30;;;;;;;5.85;1.67;;;;;;;;;;5030044;28;20045;-64
2024/03/23 07:43:56;;;;;;;15.75;2.38;;;;;;;;;;5025854;28;20052;-63
2024/03/23 07:46:25;;;;;;;5.25;1.35;;;;;;;;;;5040719;28;20059;-63
2024/03/23 07:48:54;;;;;;;;;;;;;;;;;;5038525;28;20060;-64
2024/03/23 07:51:22;;;;;;;8.88;2.00;;;;;;;;;;5041072;28;20011;-64
2024/03/23 07:53:48;;;;;;;10.77;2.00;;;;;;;;;;5032921;28;20049;-64
2024/03/23 07:56:18;;;;;;;10.10;2.08;;;;;;;;;;5036503;28;20110;-64
2024/03/23 07:58:46;;;;;;;6.07;1.38;;;;;;;;;;5039319;28;20057;-64
2024/03/23 08:01:14;;;;;;;13.88;1.77;;;;;;;;;;5029737;28;20068;-64
2024/03/23 08:03:48;;;;;;;3.80;0.90;;;;;;;;;;5011909;28;20068;-64
2024/03/23 08:06:17;;;;;;;6.68;1.45;;;;;;;;;;5035805;28;20051;-63
2024/03/23 08:08:45;;;;;;;5.63;1.40;;;;;;;;;;5039170;28;20132;-64
2024/03/23 08:11:11;;;;;;;17.40;3.50;;;;;;;;;;5037191;28;20137;-63
2024/03/23 08:13:40;;;;;;;10.35;1.88;;;;;;;;;;5026949;28;20053;-65
2024/03/23 08:16:07;;;;;;;9.90;2.88;;;;;;;;;;5016974;28;20073;-64
2024/03/23 08:18:33;;;;;;;4.32;1.55;;;;;;;;;;5039412;28;20056;-64
2024/03/23 08:21:00;;;;;;;8.13;1.42;;;;;;;;;;5033038;28;20105;-64
2024/03/23 08:23:32;;;;;;;8.98;1.80;;;;;;;;;;5045425;28;20057;-64
2024/03/23 08:26:01;;;;;;;6.38;1.50;;;;;;;;;;4991711;28;20052;-63
2024/03/23 08:28:28;;;;;;;7.20;1.42;;;;;;;;;;5039761;28;20174;-64
2024/03/23 08:30:55;;;;;;;7.10;1.30;;;;;;;;;;5034401;28;20056;-64
2024/03/23 08:33:22;;;;;;;6.78;1.58;;;;;;;;;;5031887;28;20057;-64
2024/03/23 08:35:54;;;;;;;5.72;1.33;;;;;;;;;;5028176;28;20067;-64
2024/03/23 08:38:21;;;;;;;14.65;2.80;;;;;;;;;;5035335;28;20997;-63
2024/03/23 08:40:56;;;;;;;5.47;1.33;;;;;;;;;;5036735;28;20057;-64
2024/03/23 08:43:23;;;;;;;8.77;1.67;;;;;;;;;;5036818;28;20048;-64
2024/03/23 08:45:49;;;;;;;1.77;0.85;;;;;;;;;;4984672;28;20052;-64
2024/03/23 08:48:16;;;;;;;9.13;1.55;;;;;;;;;;5031440;28;20143;-64
2024/03/23 08:50:42;;;;;;;7.23;1.27;;;;;;;;;;5034586;28;20049;-64
2024/03/23 08:53:09;;;;;;;5.65;2.10;;;;;;;;;;5033126;28;20064;-64
2024/03/23 08:55:35;;;;;;;12.55;1.73;;;;;;;;;;5019052;28;20103;-65
2024/03/23 08:58:03;;;;;;;11.75;1.30;;;;;;;;;;5032076;28;20064;-64
2024/03/23 09:00:29;;;;;;;10.57;2.65;;;;;;;;;;5039893;28;20141;-64
2024/03/23 09:02:56;;;;;;;5.82;1.10;;;;;;;;;;5042745;28;20140;-66
2024/03/23 09:05:24;;;;;;;5.47;1.20;;;;;;;;;;4990755;28;20146;-65
2024/03/23 09:07:53;;;;;;;10.32;1.42;;;;;;;;;;5030972;28;20064;-64
2024/03/23 09:10:18;;;;;;;5.65;1.00;;;;;;;;;;5041619;28;20063;-66
2024/03/23 09:12:45;;;;;;;9.98;1.42;;;;;;;;;;5027077;28;20053;-65
2024/03/23 09:15:13;;;;;;;5.53;1.20;;;;;;;;;;5025882;28;20076;-64
2024/03/23 09:17:40;;;;;;;8.40;1.00;;;;;;;;;;5023682;28;20057;-65
2024/03/23 09:20:12;;;;;;;6.43;0.85;;;;;;;;;;5047553;28;20052;-64
2024/03/23 09:22:38;;;;;;;5.90;1.05;;;;;;;;;;5032826;28;20057;-65
2024/03/23 09:25:05;;;;;;;9.27;1.10;;;;;;;;;;5001256;28;20060;-65
2024/03/23 09:27:34;;;;;;;5.00;1.20;;;;;;;;;;5039624;28;20269;-66
2024/03/23 09:30:02;;;;;;;5.30;1.27;;;;;;;;;;5031400;28;20053;-65
2024/03/23 09:32:33;;;;;;;8.02;2.00;;;;;;;;;;5036557;28;20108;-65
2024/03/23 09:34:58;;;;;;;;;;;;;;;;;;5022195;28;20056;-64
2024/03/23 09:37:25;;;;;;;6.57;1.13;;;;;;;;;;5037158;28;19925;-64
2024/03/23 09:39:51;;;;;;;8.07;1.10;;;;;;;;;;5025210;28;20146;-65
2024/03/23 09:42:18;;;;;;;2.33;0.70;;;;;;;;;;5034408;28;20132;-65
2024/03/23 09:44:48;;;;;;;9.27;1.10;;;;;;;;;;5014529;28;20061;-64
2024/03/23 09:47:17;;;;;;;8.18;1.10;;;;;;;;;;5049924;28;20056;-64
2024/03/23 09:49:47;;;;;;;12.10;1.25;;;;;;;;;;5030927;28;20048;-65
2024/03/23 09:52:16;;;;;;;8.70;1.90;;;;;;;;;;5032395;28;20048;-65
2024/03/23 09:54:53;;;;;;;10.25;1.88;;;;;;;;;;4997460;28;20053;-65
2024/03/23 09:57:22;;;;;;;8.00;1.55;;;;;;;;;;5034011;28;20049;-65
2024/03/23 09:59:48;;;;;;;4.47;0.75;;;;;;;;;;5034028;28;20049;-65
2024/03/23 10:02:17;;;;;;;2.28;0.93;;;;;;;;;;5030539;28;20041;-65
2024/03/23 10:04:44;;;;;;;5.32;1.08;;;;;;;;;;5000763;28;20162;-66
2024/03/23 10:07:14;;;;;;;3.50;1.27;;;;;;;;;;5040333;28;20057;-64
2024/03/23 10:09:40;;;;;;;5.63;1.20;;;;;;;;;;5031052;28;20136;-64
2024/03/23 10:12:12;;;;;;;5.53;1.13;;;;;;;;;;5037226;28;20060;-64
2024/03/23 10:14:42;;;;;;;8.20;0.93;;;;;;;;;;4982461;28;20061;-66
2024/03/23 10:17:30;;;;;;;3.05;0.63;;;;;;;;;;5025078;28;20079;-66
2024/03/23 10:19:57;;;;;;;2.97;1.00;;;;;;;;;;5031170;28;20064;-64
2024/03/23 10:22:26;;;;;;;7.00;1.02;;;;;;;;;;5031782;28;20148;-65
2024/03/23 10:24:52;;;;;;;7.63;1.67;;;;;;;;;;5008936;28;20061;-67
2024/03/23 10:27:20;;;;;;;5.72;0.88;;;;;;;;;;5032357;28;20049;-65
2024/03/23 10:29:46;;;;;;;10.32;1.10;;;;;;;;;;5030102;28;20065;-64
2024/03/23 10:32:15;;;;;;;12.23;1.30;;;;;;;;;;5031936;28;20076;-64
2024/03/23 10:34:41;;;;;;;11.02;1.50;;;;;;;;;;5010372;28;20079;-65
2024/03/23 10:37:10;;;;;;;3.83;1.15;;;;;;;;;;5041410;28;20057;-64
2024/03/23 10:39:40;;;;;;;8.88;1.48;;;;;;;;;;5033711;28;20047;-65
2024/03/23 10:42:08;;;;;;;7.38;1.80;;;;;;;;;;5035192;28;20068;-65
2024/03/23 10:44:38;;;;;;;7.20;1.05;;;;;;;;;;5018779;28;20145;-63
2024/03/23 10:47:06;;;;;;;3.63;0.70;;;;;;;;;;5019075;28;20049;-64
2024/03/23 10:49:32;;;;;;;6.70;1.88;;;;;;;;;;5040118;28;20097;-66
2024/03/23 10:52:02;;;;;;;9.02;1.60;;;;;;;;;;5035330;28;20049;-65
2024/03/23 10:54:32;;;;;;;9.68;1.60;;;;;;;;;;5027832;28;20049;-65
2024/03/23 10:57:04;;;;;;;3.40;0.73;;;;;;;;;;5028311;28;20084;-65
2024/03/23 10:59:31;;;;;;;9.77;1.30;;;;;;;;;;5033417;28;20064;-65
2024/03/23 11:01:59;;;;;;;8.27;1.00;;;;;;;;;;5029670;28;20150;-65
2024/03/23 11:04:31;;;;;;;22.83;1.40;;;;;;;;;;5026925;28;20145;-64
2024/03/23 11:06:59;;;;;;;10.88;1.67;;;;;;;;;;5027138;28;20307;-65
2024/03/23 11:09:44;;;;;;;6.22;1.50;;;;;;;;;;5030916;28;20065;-65
2024/03/23 11:12:35;;;;;;;7.70;2.25;;;;;;;;;;5030470;28;20056;-67
2024/03/23 11:15:03;;;;;;;14.05;1.70;;;;;;;;;;4932872;28;20046;-65
2024/03/23 11:17:35;;;;;;;11.27;2.05;;;;;;;;;;5012410;28;20530;-65
2024/03/23 11:20:02;;;;;;;9.35;1.80;;;;;;;;;;5031906;28;20148;-67
2024/03/23 11:22:49;;;;;;;13.43;1.85;;;;;;;;;;5034279;28;20069;-65
2024/03/23 11:25:21;;;;;;;11.70;1.55;;;;;;;;;;5025510;28;20113;-67
2024/03/23 11:27:54;;;;;;;3.78;0.77;;;;;;;;;;5031566;28;20061;-66
2024/03/23 11:30:24;;;;;;;3.90;1.40;;;;;;;;;;5032486;28;20057;-66
2024/03/23 11:32:56;;;;;;;6.85;1.23;;;;;;;;;;5027914;28;20075;-67
2024/03/23 11:35:26;;;;;;;6.95;1.15;;;;;;;;;;5010492;28;21261;-66
2024/03/23 11:38:04;;;;;;;7.57;1.55;;;;;;;;;;5031903;28;20065;-65
2024/03/23 11:40:32;;;;;;;5.88;1.17;;;;;;;;;;5030111;28;20057;-66
2024/03/23 11:43:00;;;;;;;3.50;1.00;;;;;;;;;;5024584;28;20107;-66
2024/03/23 11:45:25;;;;;;;5.30;1.07;;;;;;;;;;5014920;28;20053;-66
2024/03/23 11:48:07;;;;;;;5.45;1.23;;;;;;;;;;5031405;28;20053;-65
2024/03/23 11:50:36;;;;;;;7.35;1.80;;;;;;;;;;5032209;28;20056;-67
2024/03/23 11:53:15;;;;;;;5.05;1.10;;;;;;;;;;5027542;28;20091;-64
2024/03/23 11:55:48;;;;;;;6.00;1.20;;;;;;;;;;5025751;28;20084;-64
2024/03/23 11:58:17;;;;;;;4.25;0.82;;;;;;;;;;5031948;28;20148;-64
2024/03/23 12:00:52;;;;;;;13.57;1.23;;;;;;;;;;5030954;28;20048;-65
2024/03/23 12:03:21;;;;;;;8.70;1.17;;;;;;;;;;5038002;28;20053;-65
2024/03/23 12:05:49;;;;;;;3.70;0.70;;;;;;;;;;5016240;28;20056;-65
2024/03/23 12:08:20;;;;;;;4.40;0.88;;;;;;;;;;5041157;28;20221;-64
2024/03/23 12:10:50;;;;;;;6.50;1.73;;;;;;;;;;5038235;28;20192;-64
2024/03/23 12:13:21;;;;;;;13.27;3.65;;;;;;;;;;5035212;28;20147;-65
2024/03/23 12:15:49;;;;;;;7.07;1.00;;;;;;;;;;5029822;28;20053;-65
2024/03/23 12:18:15;;;;;;;8.95;1.02;;;;;;;;;;5033906;28;20061;-64
2024/03/23 12:20:46;;;;;;;5.40;1.13;;;;;;;;;;5031227;28;20045;-65
2024/03/23 12:23:13;;;;;;;7.30;1.10;;;;;;;;;;5036475;28;20065;-64
2024/03/23 12:25:40;;;;;;;10.25;1.77;;;;;;;;;;5029688;28;20060;-64
2024/03/23 12:28:10;;;;;;;6.63;1.02;;;;;;;;;;5032749;28;20053;-65
2024/03/23 12:30:38;;;;;;;8.70;1.00;;;;;;;;;;5033173;28;21006;-65
2024/03/23 12:33:07;;;;;;;22.15;2.78;;;;;;;;;;5028128;28;20052;-65
2024/03/23 12:35:33;;;;;;;10.73;1.52;;;;;;;;;;5022507;28;20968;-65
2024/03/23 12:38:00;;;;;;;3.58;0.93;;;;;;;;;;5036118;28;20090;-66
2024/03/23 12:40:27;;;;;;;5.13;0.77;;;;;;;;;;5034699;28;20126;-66
2024/03/23 12:42:57;;;;;;;9.30;1.67;;;;;;;;;;5029321;28;20057;-65
2024/03/23 12:45:24;;;;;;;7.85;1.17;;;;;;;;;;5020613;28;20060;-65
2024/03/23 12:47:52;;;;;;;8.35;1.42;;;;;;;;;;5033077;28;20061;-64
2024/03/23 12:50:20;;;;;;;2.28;0.85;;;;;;;;;;5031807;28;20056;-65
2024/03/23 12:52:46;;;;;;;1.55;0.60;;;;;;;;;;5029885;28;20057;-64
2024/03/23 12:55:13;;;;;;;2.72;1.13;;;;;;;;;;5021538;28;20076;-64
2024/03/23 12:57:41;;;;;;;7.07;1.55;;;;;;;;;;5034502;28;20065;-64
2024/03/23 13:00:17;;;;;;;;;;;;;;;;;;5031377;28;20071;-65
2024/03/23 13:02:49;;;;;;;9.38;1.30;;;;;;;;;;4999413;28;19944;-66
2024/03/23 13:05:15;;;;;;;10.00;1.92;;;;;;;;;;4988112;28;20061;-65
2024/03/23 13:07:42;;;;;;;10.88;2.17;;;;;;;;;;5003554;28;20057;-65
2024/03/23 13:10:08;;;;;;;13.98;2.83;;;;;;;;;;4995627;28;20065;-65
2024/03/23 13:12:35;;;;;;;9.30;1.23;;;;;;;;;;4995437;28;20099;-65
2024/03/23 13:15:01;;;;;;;8.55;1.27;;;;;;;;;;4984169;28;21653;-65
2024/03/23 13:17:28;;;;;;;8.80;1.40;;;;;;;;;;4996361;28;20180;-66
2024/03/23 13:19:55;;;;;;;7.38;1.17;;;;;;;;;;4991532;28;20139;-65
2024/03/23 13:22:25;;;;;;;8.10;1.23;;;;;;;;;;4994479;28;20086;-66
2024/03/23 13:24:50;;;;;;;5.43;1.10;;;;;;;;;;4973854;28;20136;-65
2024/03/23 13:27:19;;;;;;;7.43;1.45;;;;;;;;;;4992615;28;20066;-65
2024/03/23 13:29:46;;;;;;;8.05;1.85;;;;;;;;;;4993527;28;20061;-66
2024/03/23 13:32:13;;;;;;;9.73;1.95;;;;;;;;;;4991302;28;20062;-66
2024/03/23 13:34:40;;;;;;;6.78;1.40;;;;;;;;;;4986235;28;20049;-64
2024/03/23 13:37:12;;;;;;;6.80;1.20;;;;;;;;;;4989287;28;20455;-64
2024/03/23 13:39:38;;;;;;;7.30;1.40;;;;;;;;;;5002068;28;20079;-65
2024/03/23 13:42:05;;;;;;;8.98;1.50;;;;;;;;;;4994735;28;20065;-65
2024/03/23 13:44:31;;;;;;;7.68;2.70;;;;;;;;;;4982617;28;20054;-64
2024/03/23 13:46:59;;;;;;;4.13;1.40;;;;;;;;;;4986587;28;20747;-65
2024/03/23 13:49:27;;;;;;;6.50;1.25;;;;;;;;;;4986749;28;20104;-65
2024/03/23 13:51:58;;;;;;;11.73;1.38;;;;;;;;;;4989669;28;20527;-65
2024/03/23 13:54:25;;;;;;;6.65;1.23;;;;;;;;;;4988089;28;20088;-65
2024/03/23 13:56:52;;;;;;;6.15;1.13;;;;;;;;;;4972276;28;20069;-65
2024/03/23 13:59:19;;;;;;;9.55;1.00;;;;;;;;;;5001745;28;21025;-66
2024/03/23 14:01:46;;;;;;;8.30;1.35;;;;;;;;;;5018368;28;20092;-66
2024/03/23 14:04:12;;;;;;;5.05;1.13;;;;;;;;;;5031527;28;20074;-66
2024/03/23 14:06:41;;;;;;;3.38;1.10;;;;;;;;;;5021047;28;20060;-66
2024/03/23 14:09:08;;;;;;;3.80;0.88;;;;;;;;;;5039561;28;20095;-66
2024/03/23 14:11:37;;;;;;;4.38;1.17;;;;;;;;;;5025980;28;20060;-65
2024/03/23 14:14:03;;;;;;;5.93;1.50;;;;;;;;;;5047633;28;20055;-66
2024/03/23 14:16:32;;;;;;;6.25;1.33;;;;;;;;;;5018520;28;20085;-65
2024/03/23 14:18:58;;;;;;;4.05;0.75;;;;;;;;;;5036002;28;20373;-66
2024/03/23 14:21:25;;;;;;;2.30;0.60;;;;;;;;;;5033384;28;20056;-65
2024/03/23 14:23:51;;;;;;;6.05;1.60;;;;;;;;;;5028993;28;20056;-64
2024/03/23 14:26:18;;;;;;;5.70;1.13;;;;;;;;;;5029631;28;20075;-64
2024/03/23 14:28:46;;;;;;;6.32;1.35;;;;;;;;;;5025548;28;20057;-65
2024/03/23 14:31:12;;;;;;;6.05;1.42;;;;;;;;;;5034197;28;20057;-65
2024/03/23 14:33:41;;;;;;;4.20;1.00;;;;;;;;;;5039886;28;20091;-65
2024/03/23 14:36:08;;;;;;;2.08;0.70;;;;;;;;;;5026232;28;20045;-65
2024/03/23 14:38:36;;;;;;;3.97;0.80;;;;;;;;;;5028200;28;20080;-66
2024/03/23 14:41:03;;;;;;;8.57;1.85;;;;;;;;;;5024225;28;20135;-66
2024/03/23 14:43:29;;;;;;;2.28;0.57;;;;;;;;;;5031857;28;21270;-65